Time;durP1;ratioP1;P1;durP2;ratioP2;P2;SDS_P1;SDS_P2;PMS_P1;PMS_P2;Temp;Humidity;BMP_temperature;BMP_pressure;BME280_temperature;BME280_humidity;BME280_pressure;Samples;Min_cycle;Max_cycle;Signal;HPM_P1;HPM_P2
2024/04/23 00:00:05;;;;;;;4.20;3.80;;;;;;;4.32;58.44;96182.78;5335734;26;20329;-71
2024/04/23 00:02:30;;;;;;;5.10;4.60;;;;;;;4.25;57.87;96181.19;5333282;26;20222;-70
2024/04/23 00:04:55;;;;;;;5.90;4.37;;;;;;;4.30;57.94;96174.19;5335474;26;21051;-70
2024/04/23 00:07:21;;;;;;;6.87;6.00;;;;;;;4.38;58.50;96181.78;5323183;26;20234;-71
2024/04/23 00:09:48;;;;;;;6.83;4.83;;;;;;;4.33;57.99;96168.91;5336175;26;20231;-71
2024/04/23 00:12:14;;;;;;;5.87;4.53;;;;;;;4.29;58.16;96174.22;5333753;26;20265;-70
2024/04/23 00:14:39;;;;;;;6.20;4.47;;;;;;;4.33;58.33;96162.88;5316954;26;20461;-70
2024/04/23 00:17:05;;;;;;;6.70;5.60;;;;;;;4.21;58.92;96175.25;5333836;26;20243;-70
2024/04/23 00:19:31;;;;;;;6.80;4.63;;;;;;;4.23;58.66;96154.44;5335151;26;20250;-70
2024/04/23 00:21:56;;;;;;;6.07;5.20;;;;;;;4.02;59.12;96163.56;5334599;26;20238;-71
2024/04/23 00:24:22;;;;;;;5.10;4.60;;;;;;;4.10;58.82;96166.81;5334053;26;20234;-70
2024/04/23 00:26:57;;;;;;;5.47;4.97;;;;;;;4.00;59.78;96161.00;5321487;26;20298;-70
2024/04/23 00:29:24;;;;;;;5.60;4.90;;;;;;;3.94;59.65;96155.91;5330600;26;21045;-71
2024/04/23 00:31:49;;;;;;;4.87;4.40;;;;;;;3.74;59.85;96158.94;5334850;26;20977;-70
2024/04/23 00:34:15;;;;;;;5.47;4.97;;;;;;;3.86;59.78;96157.84;5334230;26;20461;-70
2024/04/23 00:36:57;;;;;;;5.33;4.80;;;;;;;3.89;59.62;96162.09;5335234;26;21211;-70
2024/04/23 00:39:23;;;;;;;7.80;5.40;;;;;;;3.84;59.84;96148.38;5330826;26;20285;-70
2024/04/23 00:41:49;;;;;;;6.00;5.40;;;;;;;3.76;60.34;96148.56;5334666;26;20453;-70
2024/04/23 00:44:15;;;;;;;6.47;5.87;;;;;;;3.94;59.59;96145.53;5334554;26;21155;-70
2024/04/23 00:46:41;;;;;;;6.50;5.70;;;;;;;3.67;60.03;96152.19;5334913;26;20332;-70
2024/04/23 00:49:12;;;;;;;6.57;5.20;;;;;;;3.82;60.01;96145.81;5334507;26;20584;-70
2024/04/23 00:51:42;;;;;;;5.37;4.87;;;;;;;4.02;59.30;96142.78;5335027;26;20469;-70
2024/04/23 00:54:12;;;;;;;5.80;5.00;;;;;;;3.81;60.03;96150.16;5334468;26;20514;-69
2024/04/23 00:56:38;;;;;;;5.40;4.60;;;;;;;3.80;59.81;96153.66;5320079;26;20471;-70
2024/04/23 00:59:04;;;;;;;5.37;4.87;;;;;;;4.01;58.93;96154.03;5333774;26;21135;-69
2024/04/23 01:01:35;;;;;;;5.70;5.20;;;;;;;4.18;58.22;96151.06;5335230;26;20468;-71
2024/04/23 01:04:02;;;;;;;6.93;5.77;;;;;;;4.11;58.73;96152.97;5333599;26;20469;-70
2024/04/23 01:06:28;;;;;;;7.17;4.33;;;;;;;3.88;59.48;96155.22;5319709;26;20578;-71
2024/04/23 01:08:53;;;;;;;5.93;5.00;;;;;;;3.95;59.17;96155.03;5328891;26;20453;-71
2024/04/23 01:11:19;;;;;;;6.30;5.40;;;;;;;3.98;58.91;96154.13;5333074;26;20223;-69
2024/04/23 01:13:44;;;;;;;7.30;5.37;;;;;;;3.85;59.06;96155.25;5333096;26;20234;-70
2024/04/23 01:16:10;;;;;;;7.07;5.27;;;;;;;3.63;59.78;96154.88;5329795;26;20238;-71
2024/04/23 01:18:37;;;;;;;5.93;5.00;;;;;;;3.69;59.60;96157.34;5331396;26;20302;-70
2024/04/23 01:21:06;;;;;;;5.60;5.03;;;;;;;3.65;59.86;96159.13;5334591;26;20558;-69
2024/04/23 01:23:40;;;;;;;9.87;4.53;;;;;;;3.62;59.82;96158.38;5333575;26;20470;-71
2024/04/23 01:26:08;;;;;;;9.40;6.40;;;;;;;3.50;60.19;96154.28;5335987;26;20786;-71
2024/04/23 01:28:35;;;;;;;5.17;4.73;;;;;;;3.53;60.18;96154.22;5316387;26;20541;-70
2024/04/23 01:31:02;;;;;;;6.17;5.57;;;;;;;3.54;60.30;96159.38;5334617;26;20951;-70
2024/04/23 01:33:28;;;;;;;7.07;5.37;;;;;;;3.59;60.00;96157.53;5319630;26;20580;-70
2024/04/23 01:35:54;;;;;;;9.43;6.37;;;;;;;3.66;60.24;96153.09;5334916;26;20986;-70
2024/04/23 01:38:20;;;;;;;6.67;5.13;;;;;;;3.58;59.66;96161.00;5333804;26;20819;-70
2024/04/23 01:40:46;;;;;;;7.23;5.50;;;;;;;3.46;60.01;96161.25;5334291;26;20850;-70
2024/04/23 01:43:13;;;;;;;6.20;5.50;;;;;;;3.29;60.83;96158.16;5334172;26;20465;-69
2024/04/23 01:45:39;;;;;;;6.00;5.30;;;;;;;3.43;60.27;96148.34;5333579;26;20597;-70
2024/04/23 01:48:06;;;;;;;6.97;5.47;;;;;;;3.53;60.34;96149.00;5335264;26;20514;-71
2024/04/23 01:50:31;;;;;;;5.77;5.23;;;;;;;3.35;61.04;96156.28;5335845;26;20521;-70
2024/04/23 01:52:56;;;;;;;7.20;5.53;;;;;;;3.32;61.40;96150.28;5310971;26;20447;-70
2024/04/23 01:55:23;;;;;;;6.23;5.63;;;;;;;3.27;60.63;96146.94;5332917;26;20342;-70
2024/04/23 01:57:48;;;;;;;5.50;4.63;;;;;;;3.36;61.24;96145.03;5323266;26;20281;-70
2024/04/23 02:00:17;;;;;;;9.07;4.90;;;;;;;3.57;60.41;96142.88;5322108;26;20439;-71
2024/04/23 02:02:45;;;;;;;7.37;5.40;;;;;;;3.33;60.79;96147.69;5333556;26;20446;-70
2024/04/23 02:05:12;;;;;;;8.37;5.77;;;;;;;3.39;60.68;96141.50;5333849;26;20522;-70
2024/04/23 02:07:38;;;;;;;5.87;5.30;;;;;;;3.45;61.04;96145.72;5327054;26;20538;-71
2024/04/23 02:10:04;;;;;;;8.03;5.90;;;;;;;3.18;61.11;96143.63;5333739;26;20604;-71
2024/04/23 02:12:30;;;;;;;6.17;5.17;;;;;;;3.33;60.41;96136.44;5331409;26;20570;-70
2024/04/23 02:14:55;;;;;;;6.10;5.50;;;;;;;3.45;60.09;96132.75;5332968;26;20450;-69
2024/04/23 02:17:21;;;;;;;6.80;5.70;;;;;;;3.42;60.06;96136.25;5333259;26;20261;-71
2024/04/23 02:19:46;;;;;;;11.83;6.40;;;;;;;3.16;61.14;96129.84;5333784;26;20824;-69
2024/04/23 02:22:12;;;;;;;10.00;6.70;;;;;;;3.29;60.44;96119.25;5332095;26;20966;-70
2024/04/23 02:24:38;;;;;;;7.33;5.97;;;;;;;3.40;60.49;96125.03;5332395;26;20794;-71
2024/04/23 02:27:04;;;;;;;8.67;4.83;;;;;;;3.20;60.89;96122.00;5332623;26;20710;-72
2024/04/23 02:29:29;;;;;;;6.53;5.13;;;;;;;3.43;60.77;96119.81;5333639;26;20469;-70
2024/04/23 02:32:01;;;;;;;8.77;5.30;;;;;;;3.63;60.00;96118.53;5328643;26;20322;-70
2024/04/23 02:34:27;;;;;;;7.10;5.80;;;;;;;3.48;60.09;96111.94;5332382;26;20277;-71
2024/04/23 02:36:53;;;;;;;9.30;6.20;;;;;;;3.32;60.88;96109.66;5331774;26;20918;-70
2024/04/23 02:39:19;;;;;;;10.03;6.33;;;;;;;3.26;60.82;96108.91;5333336;26;20246;-70
2024/04/23 02:41:52;;;;;;;7.07;5.80;;;;;;;3.41;60.72;96103.44;5335849;26;20594;-69
2024/04/23 02:44:17;;;;;;;7.97;5.60;;;;;;;3.65;59.15;96111.59;5335624;26;21034;-72
2024/04/23 02:46:42;;;;;;;7.50;5.60;;;;;;;3.32;60.84;96104.47;5336176;26;20469;-69
2024/04/23 02:49:08;;;;;;;7.27;5.60;;;;;;;3.57;59.09;96102.22;5328538;26;20525;-71
2024/04/23 02:51:33;;;;;;;6.10;5.50;;;;;;;3.41;60.15;96097.41;5335988;26;20230;-70
2024/04/23 02:53:59;;;;;;;19.47;5.60;;;;;;;3.55;60.00;96096.22;5335439;26;20330;-70
2024/04/23 02:56:25;;;;;;;14.47;7.00;;;;;;;3.33;59.73;96098.41;5335969;26;20243;-69
2024/04/23 02:58:50;;;;;;;5.83;5.23;;;;;;;3.47;59.92;96098.09;5338006;26;20293;-70
2024/04/23 03:01:16;;;;;;;9.43;6.00;;;;;;;3.42;59.59;96092.16;5339227;26;21071;-70
2024/04/23 03:03:41;;;;;;;6.20;5.60;;;;;;;2.94;61.41;96092.25;5338917;26;20227;-70
2024/04/23 03:06:06;;;;;;;6.20;5.60;;;;;;;3.46;60.04;96090.38;5335682;26;20342;-71
2024/04/23 03:08:32;;;;;;;8.30;7.03;;;;;;;3.37;60.04;96089.66;5337572;26;20234;-70
2024/04/23 03:10:57;;;;;;;8.37;5.80;;;;;;;3.11;60.57;96085.00;5337776;26;20250;-71
2024/04/23 03:13:23;;;;;;;6.80;5.80;;;;;;;3.30;60.57;96082.03;5336540;26;20269;-70
2024/04/23 03:15:48;;;;;;;6.30;5.53;;;;;;;3.21;60.49;96080.47;5332094;26;21065;-71
2024/04/23 03:18:13;;;;;;;6.80;6.00;;;;;;;3.53;59.87;96091.94;5339769;26;20226;-71
2024/04/23 03:20:39;;;;;;;7.30;5.60;;;;;;;2.96;61.32;96080.13;5340304;26;20226;-71
2024/04/23 03:23:04;;;;;;;6.90;6.20;;;;;;;3.29;60.11;96077.75;5337030;26;20276;-71
2024/04/23 03:25:30;;;;;;;6.90;5.83;;;;;;;3.17;60.45;96084.88;5335537;26;20230;-70
2024/04/23 03:27:55;;;;;;;7.00;6.00;;;;;;;2.94;61.15;96089.66;5335260;26;20235;-70
2024/04/23 03:30:20;;;;;;;7.60;5.90;;;;;;;3.15;60.98;96081.47;5335327;26;20256;-69
2024/04/23 03:32:46;;;;;;;9.70;6.23;;;;;;;2.80;61.68;96099.44;5334812;26;20234;-71
2024/04/23 03:35:11;;;;;;;7.10;6.00;;;;;;;2.82;61.50;96095.09;5334990;26;20235;-71
2024/04/23 03:37:36;;;;;;;9.47;5.80;;;;;;;2.88;61.42;96095.81;5335796;26;20269;-69
2024/04/23 03:40:02;;;;;;;6.47;5.43;;;;;;;2.80;61.49;96094.25;5335800;26;20226;-71
2024/04/23 03:42:27;;;;;;;6.17;5.67;;;;;;;2.56;62.79;96095.56;5335115;26;20234;-70
2024/04/23 03:44:53;;;;;;;9.63;6.73;;;;;;;2.85;61.71;96092.44;5321098;26;20254;-71
2024/04/23 03:47:18;;;;;;;8.10;6.23;;;;;;;3.02;60.96;96094.69;5335408;26;20289;-70
2024/04/23 03:49:44;;;;;;;11.00;7.30;;;;;;;2.69;61.72;96094.44;5335168;26;20231;-71
2024/04/23 03:52:10;;;;;;;7.37;6.70;;;;;;;2.80;61.85;96089.06;5322523;26;20220;-70
2024/04/23 03:54:36;;;;;;;68.53;11.27;;;;;;;3.00;61.00;96086.09;5331194;26;20457;-70
2024/04/23 03:57:02;;;;;;;12.07;8.10;;;;;;;3.25;60.46;96095.09;5335284;26;20521;-71
2024/04/23 03:59:27;;;;;;;6.83;5.47;;;;;;;2.80;61.01;96095.09;5336013;26;20460;-72
2024/04/23 04:06:03;;;;;;;8.60;5.90;;;;;;;2.70;62.10;96088.38;5337214;26;20821;-70
2024/04/23 04:07:22;;;;;;;6.80;6.03;;;;;;;3.38;59.53;96070.63;5345265;26;20643;-69
2024/04/23 04:09:47;;;;;;;9.17;6.87;;;;;;;3.41;59.87;96074.03;5344637;26;20435;-70
2024/04/23 04:12:13;;;;;;;8.60;6.07;;;;;;;3.53;59.42;96078.97;5330637;26;20802;-71
2024/04/23 04:14:38;;;;;;;9.50;5.93;;;;;;;3.15;60.23;96076.28;5326453;26;20658;-71
2024/04/23 04:17:04;;;;;;;9.20;6.07;;;;;;;3.00;60.79;96071.41;5326467;26;20231;-70
2024/04/23 04:19:30;;;;;;;10.37;6.50;;;;;;;3.07;60.42;96067.81;5336087;26;20281;-70
2024/04/23 04:21:56;;;;;;;8.07;5.70;;;;;;;3.13;59.90;96069.41;5335502;26;20629;-71
2024/04/23 04:24:22;;;;;;;6.97;6.27;;;;;;;3.09;60.74;96062.56;5335169;26;20374;-71
2024/04/23 04:26:47;;;;;;;8.67;6.47;;;;;;;3.08;60.13;96069.50;5335385;26;20465;-71
2024/04/23 04:29:12;;;;;;;5.30;4.73;;;;;;;2.98;61.18;96068.00;5335300;26;20284;-70
2024/04/23 04:31:38;;;;;;;7.43;6.20;;;;;;;2.93;61.07;96062.91;5328546;26;20302;-71
2024/04/23 04:34:03;;;;;;;8.43;6.50;;;;;;;3.06;60.81;96068.69;5338036;26;20411;-71
2024/04/23 04:36:29;;;;;;;8.87;5.80;;;;;;;2.95;60.54;96063.72;5327316;26;20303;-70
2024/04/23 04:38:54;;;;;;;9.87;6.47;;;;;;;2.85;61.38;96066.50;5334455;26;20701;-71
2024/04/23 04:41:20;;;;;;;24.00;8.47;;;;;;;3.09;60.27;96065.16;5335189;26;20238;-70
2024/04/23 04:43:45;;;;;;;6.97;5.80;;;;;;;2.99;61.17;96067.09;5333109;26;20234;-69
2024/04/23 04:46:10;;;;;;;8.30;5.80;;;;;;;3.06;60.47;96060.06;5332745;26;20251;-69
2024/04/23 04:48:36;;;;;;;8.10;5.73;;;;;;;2.99;61.08;96064.50;5332391;26;20231;-70
2024/04/23 04:51:01;;;;;;;7.03;6.23;;;;;;;3.25;59.92;96057.94;5332929;26;21194;-70
2024/04/23 04:53:26;;;;;;;6.60;5.87;;;;;;;2.92;61.17;96071.53;5332539;26;20227;-70
2024/04/23 04:55:52;;;;;;;6.27;5.67;;;;;;;3.04;60.25;96067.00;5332736;26;20306;-71
2024/04/23 04:58:17;;;;;;;6.67;5.63;;;;;;;3.28;59.79;96074.28;5332761;26;20230;-71
2024/04/23 05:00:43;;;;;;;44.23;10.83;;;;;;;3.24;60.11;96072.66;5331947;26;20338;-70
2024/04/23 05:03:08;;;;;;;11.33;5.93;;;;;;;3.23;59.92;96067.50;5330853;26;20235;-71
2024/04/23 05:05:33;;;;;;;14.93;6.57;;;;;;;3.22;60.18;96069.25;5329790;26;20238;-68
2024/04/23 05:07:59;;;;;;;12.80;6.23;;;;;;;3.29;60.23;96069.97;5331958;26;20238;-69
2024/04/23 05:10:24;;;;;;;6.67;6.00;;;;;;;3.41;59.02;96064.53;5330834;26;20231;-67
2024/04/23 05:12:50;;;;;;;10.10;6.27;;;;;;;3.37;59.54;96070.66;5327158;26;20238;-67
2024/04/23 05:15:16;;;;;;;7.33;5.67;;;;;;;3.28;59.45;96071.69;5328755;26;20272;-67
2024/04/23 05:17:41;;;;;;;6.60;5.70;;;;;;;3.07;60.60;96062.63;5332133;26;20277;-71
2024/04/23 05:20:09;;;;;;;10.80;7.10;;;;;;;3.25;60.34;96068.31;5332175;26;20932;-71
2024/04/23 05:22:34;;;;;;;13.50;6.93;;;;;;;3.43;58.67;96074.88;5331717;26;20978;-71
2024/04/23 05:25:00;;;;;;;6.60;6.00;;;;;;;3.31;59.27;96070.81;5330605;26;20461;-69
2024/04/23 05:27:25;;;;;;;6.50;5.80;;;;;;;3.56;59.50;96060.72;5320149;26;20404;-67
2024/04/23 05:29:54;;;;;;;10.50;8.10;;;;;;;3.37;59.38;96073.25;5325337;26;20247;-70
2024/04/23 05:35:04;;;;;;;7.67;5.40;;;;;;;3.47;59.67;96073.91;5321164;26;20515;-70
2024/04/23 05:37:29;;;;;;;8.87;6.07;;;;;;;3.48;59.69;96073.88;5330887;26;20461;-69
2024/04/23 05:39:54;;;;;;;10.23;6.10;;;;;;;3.05;60.32;96068.69;5331665;26;20281;-68
2024/04/23 05:42:20;;;;;;;8.67;5.50;;;;;;;3.04;60.25;96073.03;5330123;26;20574;-69
2024/04/23 05:44:45;;;;;;;13.97;6.43;;;;;;;3.42;59.36;96068.81;5330582;26;20231;-70
2024/04/23 05:47:10;;;;;;;6.90;5.73;;;;;;;3.53;59.02;96078.97;5328013;26;20239;-70
2024/04/23 05:50:14;;;;;;;10.80;6.47;;;;;;;3.75;58.10;96076.75;5322491;26;20330;-70
2024/04/23 05:53:16;;;;;;;6.33;5.53;;;;;;;3.46;58.52;96080.84;5326189;26;20278;-70
2024/04/23 05:55:42;;;;;;;7.47;5.10;;;;;;;3.42;58.50;96081.78;5328498;26;20532;-66
2024/04/23 05:58:08;;;;;;;14.70;6.40;;;;;;;2.99;60.18;96081.81;5325039;26;21012;-67
2024/04/23 06:00:35;;;;;;;7.90;6.73;;;;;;;3.23;59.19;96085.66;5322673;26;20815;-67
2024/04/23 06:03:01;;;;;;;10.73;6.27;;;;;;;3.47;59.14;96079.94;5320512;26;20523;-68
2024/04/23 06:05:26;;;;;;;6.97;6.27;;;;;;;3.60;58.08;96083.13;5319811;26;20461;-67
2024/04/23 06:07:53;;;;;;;6.27;5.23;;;;;;;3.51;58.36;96093.72;5328864;26;20585;-69
2024/04/23 06:10:19;;;;;;;6.47;5.80;;;;;;;3.62;57.58;96094.34;5328800;26;20222;-67
2024/04/23 06:12:45;;;;;;;10.40;6.23;;;;;;;3.52;58.23;96100.59;5329289;26;20461;-67
2024/04/23 06:15:10;;;;;;;8.50;6.50;;;;;;;3.67;57.96;96094.25;5328248;26;20262;-67
2024/04/23 06:17:36;;;;;;;7.47;6.13;;;;;;;3.52;58.61;96098.88;5332219;26;20343;-67
2024/04/23 06:20:05;;;;;;;9.20;6.40;;;;;;;3.57;58.93;96098.78;5333328;26;20273;-68
2024/04/23 06:22:35;;;;;;;9.00;5.07;;;;;;;3.46;58.28;96095.56;5319960;26;20235;-67
2024/04/23 06:25:02;;;;;;;6.90;6.17;;;;;;;3.38;58.79;96095.72;5317444;26;20474;-67
2024/04/23 06:27:27;;;;;;;6.97;5.90;;;;;;;3.52;58.72;96105.78;5317660;26;21274;-69
2024/04/23 06:29:54;;;;;;;7.80;6.57;;;;;;;3.37;59.39;96094.84;5331027;26;20460;-66
2024/04/23 06:32:21;;;;;;;10.50;6.77;;;;;;;3.42;59.46;96096.50;5323668;26;20264;-68
2024/04/23 06:34:47;;;;;;;6.67;5.47;;;;;;;3.49;58.79;96098.06;5321624;26;20488;-68
2024/04/23 06:37:13;;;;;;;8.97;5.40;;;;;;;3.76;58.26;96096.63;5312366;26;20462;-68
2024/04/23 06:39:40;;;;;;;6.60;5.80;;;;;;;4.06;57.15;96095.06;5333628;26;21076;-68
2024/04/23 06:42:05;;;;;;;10.90;6.30;;;;;;;4.11;58.05;96093.25;5321565;26;20269;-68
2024/04/23 06:44:31;;;;;;;7.33;6.10;;;;;;;4.01;57.89;96099.53;5330560;26;20562;-68
2024/04/23 06:46:57;;;;;;;7.23;5.87;;;;;;;3.93;57.65;96093.66;5336296;26;20291;-67
2024/04/23 06:49:23;;;;;;;8.90;6.40;;;;;;;4.03;58.21;96093.41;5337238;26;20286;-67
2024/04/23 06:51:48;;;;;;;7.80;5.80;;;;;;;4.01;57.81;96099.53;5324868;26;20785;-68
2024/04/23 06:54:14;;;;;;;7.77;6.07;;;;;;;3.59;59.18;96099.56;5326608;26;20235;-68
2024/04/23 06:56:39;;;;;;;7.13;6.27;;;;;;;3.89;58.37;96099.81;5333597;26;20239;-68
2024/04/23 06:59:06;;;;;;;10.27;5.87;;;;;;;3.79;58.24;96100.00;5340997;26;20246;-67
2024/04/23 07:01:32;;;;;;;9.83;6.20;;;;;;;3.99;58.46;96096.09;5335959;26;20586;-71
2024/04/23 07:03:58;;;;;;;7.03;5.90;;;;;;;3.82;58.65;96086.09;5339088;26;20481;-70
2024/04/23 07:06:23;;;;;;;9.60;6.90;;;;;;;3.63;59.10;96090.00;5341007;26;20453;-71
2024/04/23 07:08:49;;;;;;;8.17;7.07;;;;;;;3.63;59.87;96103.81;5341568;26;20231;-71
2024/04/23 07:11:15;;;;;;;8.67;7.40;;;;;;;3.53;59.84;96099.72;5337689;26;20717;-69
2024/04/23 07:13:44;;;;;;;6.97;6.30;;;;;;;3.62;60.30;96086.56;5331001;26;20484;-70
2024/04/23 07:16:10;;;;;;;7.20;6.37;;;;;;;3.93;59.43;96085.88;5332109;26;20273;-69
2024/04/23 07:18:35;;;;;;;7.10;6.33;;;;;;;4.25;58.57;96092.88;5339945;26;20464;-71
2024/04/23 07:21:01;;;;;;;10.77;6.23;;;;;;;4.19;58.36;96086.13;5334961;26;20285;-70
2024/04/23 07:23:27;;;;;;;6.67;6.07;;;;;;;4.17;58.95;96077.50;5335715;26;20377;-70
2024/04/23 07:25:52;;;;;;;6.93;6.27;;;;;;;4.31;58.62;96077.16;5336027;26;20642;-71
2024/04/23 07:28:18;;;;;;;8.50;7.13;;;;;;;4.50;58.28;96076.72;5336713;26;20630;-71
2024/04/23 07:30:43;;;;;;;8.27;6.47;;;;;;;4.26;58.42;96068.66;5362587;26;20799;-70
2024/04/23 07:33:09;;;;;;;9.73;6.27;;;;;;;4.11;59.87;96084.56;5334967;26;20281;-69
2024/04/23 07:35:36;;;;;;;6.97;6.27;;;;;;;4.22;59.42;96074.78;5335143;26;20332;-69
2024/04/23 07:38:02;;;;;;;6.80;6.20;;;;;;;4.44;58.90;96080.31;5334980;26;20512;-69
2024/04/23 07:40:27;;;;;;;8.87;7.20;;;;;;;4.54;58.33;96073.16;5335235;26;20461;-70
2024/04/23 07:42:53;;;;;;;9.37;6.97;;;;;;;4.68;58.54;96071.06;5334326;26;20238;-70
2024/04/23 07:45:18;;;;;;;10.47;6.40;;;;;;;4.53;58.23;96074.03;5333622;26;20559;-70
2024/04/23 07:47:43;;;;;;;8.60;6.87;;;;;;;4.15;59.79;96081.88;5334250;26;20330;-69
2024/04/23 07:50:09;;;;;;;10.00;7.00;;;;;;;4.29;59.94;96078.94;5333487;26;20269;-71
2024/04/23 07:52:35;;;;;;;8.10;7.07;;;;;;;4.37;59.30;96064.03;5334438;26;20230;-70
2024/04/23 07:55:00;;;;;;;8.30;6.33;;;;;;;4.52;59.04;96067.16;5332503;26;20230;-69
2024/04/23 07:57:26;;;;;;;6.90;6.20;;;;;;;4.61;58.34;96070.34;5332909;26;20243;-67
2024/04/23 07:59:51;;;;;;;8.87;6.27;;;;;;;4.61;59.43;96066.91;5333565;26;20223;-71
2024/04/23 08:02:16;;;;;;;8.67;6.37;;;;;;;5.03;58.30;96070.13;5331988;26;20234;-70
2024/04/23 08:04:42;;;;;;;7.70;6.13;;;;;;;4.83;58.21;96073.25;5331567;26;20226;-72
2024/04/23 08:07:07;;;;;;;7.83;6.50;;;;;;;4.72;58.68;96072.66;5334098;26;20230;-65
2024/04/23 08:09:33;;;;;;;9.73;6.90;;;;;;;5.17;57.90;96061.91;5334378;26;20623;-67
2024/04/23 08:11:58;;;;;;;11.10;6.40;;;;;;;5.46;56.94;96057.66;5334464;26;20230;-67
2024/04/23 08:14:24;;;;;;;8.10;7.30;;;;;;;5.84;56.03;96051.28;5334247;26;20255;-67
2024/04/23 08:16:49;;;;;;;7.60;6.53;;;;;;;6.26;54.96;96050.88;5320389;26;20712;-69
2024/04/23 08:19:15;;;;;;;8.43;6.73;;;;;;;6.08;55.60;96054.06;5334388;26;20340;-67
2024/04/23 08:21:40;;;;;;;8.30;7.00;;;;;;;6.62;54.32;96047.09;5334022;26;20269;-67
2024/04/23 08:24:09;;;;;;;7.97;7.00;;;;;;;7.04;52.60;96041.25;5334478;26;20231;-67
2024/04/23 08:26:35;;;;;;;8.30;6.60;;;;;;;7.36;51.22;96051.38;5333916;26;20277;-66
2024/04/23 08:29:00;;;;;;;8.73;6.43;;;;;;;6.72;53.03;96041.47;5333729;26;20484;-67
2024/04/23 08:31:26;;;;;;;9.30;6.93;;;;;;;6.94;52.22;96049.41;5334217;26;20231;-67
2024/04/23 08:33:52;;;;;;;10.40;6.50;;;;;;;6.98;52.44;96051.00;5333457;26;20531;-67
2024/04/23 08:36:18;;;;;;;7.80;7.00;;;;;;;6.39;54.04;96061.72;5333995;26;20465;-67
2024/04/23 08:38:43;;;;;;;7.90;7.10;;;;;;;6.15;55.70;96065.97;5333494;26;20361;-65
2024/04/23 08:41:17;;;;;;;9.67;6.43;;;;;;;5.99;56.00;96056.94;5332003;26;20319;-67
2024/04/23 08:44:08;;;;;;;10.80;7.37;;;;;;;5.72;56.00;96056.88;5332431;26;20243;-65
2024/04/23 08:46:34;;;;;;;8.73;6.27;;;;;;;5.83;56.87;96059.97;5334473;26;20453;-66
2024/04/23 08:49:00;;;;;;;9.40;7.33;;;;;;;5.84;56.85;96048.69;5333855;26;20593;-67
2024/04/23 08:51:27;;;;;;;8.33;6.87;;;;;;;6.26;55.76;96044.78;5333836;26;20239;-67
2024/04/23 08:53:53;;;;;;;7.57;6.20;;;;;;;6.59;54.66;96037.63;5332986;26;20509;-68
2024/04/23 08:56:22;;;;;;;7.50;6.60;;;;;;;6.75;54.18;96046.59;5332260;26;20528;-67
2024/04/23 08:58:49;;;;;;;10.93;6.80;;;;;;;6.75;54.26;96048.34;5333404;26;20473;-66
2024/04/23 09:01:24;;;;;;;7.40;6.50;;;;;;;6.71;54.30;96037.19;5335352;26;20566;-68
2024/04/23 09:03:51;;;;;;;13.57;6.63;;;;;;;5.98;54.95;96052.66;5334829;26;20825;-68
2024/04/23 09:06:18;;;;;;;6.90;6.07;;;;;;;5.75;55.78;96048.97;5334995;26;20522;-67
2024/04/23 09:08:45;;;;;;;16.63;8.17;;;;;;;5.88;56.03;96041.59;5332519;26;20556;-67
2024/04/23 09:11:10;;;;;;;7.70;6.90;;;;;;;6.16;55.46;96036.41;5333703;26;20517;-67
2024/04/23 09:13:36;;;;;;;9.43;6.67;;;;;;;5.98;55.40;96043.06;5332765;26;21361;-67
2024/04/23 09:16:02;;;;;;;7.57;6.77;;;;;;;5.77;55.73;96049.75;5329494;26;20285;-67
2024/04/23 09:18:28;;;;;;;7.60;6.80;;;;;;;6.04;55.71;96048.06;5334248;26;20308;-67
2024/04/23 09:20:54;;;;;;;9.17;7.40;;;;;;;6.03;55.53;96038.56;5334488;26;20328;-68
2024/04/23 09:23:19;;;;;;;7.43;6.37;;;;;;;6.42;55.28;96035.53;5330780;26;20489;-69
2024/04/23 09:25:46;;;;;;;7.50;6.37;;;;;;;6.51;54.90;96037.84;5332028;26;20428;-68
2024/04/23 09:28:20;;;;;;;8.37;7.03;;;;;;;6.63;54.48;96031.38;5334228;26;20408;-67
2024/04/23 09:30:47;;;;;;;8.03;7.20;;;;;;;6.20;55.91;96034.56;5341470;26;20533;-67
2024/04/23 09:33:12;;;;;;;39.80;8.30;;;;;;;6.44;55.17;96040.72;5343845;26;20465;-68
2024/04/23 09:35:43;;;;;;;7.73;6.87;;;;;;;6.50;54.80;96030.94;5343131;26;20513;-66
2024/04/23 09:38:08;;;;;;;6.90;6.23;;;;;;;6.64;54.02;96030.47;5334704;26;20242;-67
2024/04/23 09:40:40;;;;;;;10.93;6.23;;;;;;;6.24;55.55;96028.38;5332524;26;20513;-67
2024/04/23 09:43:06;;;;;;;8.03;6.00;;;;;;;6.20;55.44;96039.78;5326208;26;20351;-68
2024/04/23 09:45:31;;;;;;;14.33;8.53;;;;;;;6.17;56.02;96029.47;5330736;26;20600;-69
2024/04/23 09:47:57;;;;;;;8.70;6.10;;;;;;;6.13;55.98;96028.69;5331227;26;21129;-67
2024/04/23 09:50:28;;;;;;;7.43;6.63;;;;;;;6.23;55.72;96029.25;5334812;26;20277;-67
2024/04/23 09:53:01;;;;;;;8.70;7.07;;;;;;;6.21;56.04;96034.50;5319107;26;20239;-68
2024/04/23 09:55:26;;;;;;;7.37;5.97;;;;;;;5.93;56.09;96031.91;5332561;26;20454;-67
2024/04/23 09:57:52;;;;;;;7.60;6.90;;;;;;;5.69;57.66;96036.09;5332665;26;20571;-68
2024/04/23 10:00:20;;;;;;;7.77;6.40;;;;;;;6.02;57.09;96028.19;5331400;26;20239;-67
2024/04/23 10:02:52;;;;;;;6.93;6.23;;;;;;;5.65;57.54;96030.16;5333300;26;20298;-67
2024/04/23 10:05:26;;;;;;;8.53;6.80;;;;;;;5.79;57.08;96029.75;5333473;26;20540;-66
2024/04/23 10:08:01;;;;;;;7.87;6.57;;;;;;;5.46;57.83;96024.66;5320155;26;20488;-66
2024/04/23 10:10:39;;;;;;;9.53;7.80;;;;;;;5.41;58.95;96023.94;5333547;26;20620;-67
2024/04/23 10:13:08;;;;;;;7.50;5.97;;;;;;;5.44;59.00;96029.06;5332446;26;20469;-67
2024/04/23 10:16:17;;;;;;;11.73;6.27;;;;;;;5.51;59.13;96021.91;5334379;26;20671;-67
2024/04/23 10:19:01;;;;;;;12.13;5.80;;;;;;;5.69;58.21;96023.97;5348448;26;20920;-67
2024/04/23 10:21:29;;;;;;;6.93;6.23;;;;;;;5.61;58.13;96018.13;5333979;26;21222;-68
2024/04/23 10:24:07;;;;;;;7.37;6.60;;;;;;;5.32;59.05;96026.81;5333381;26;20543;-68
2024/04/23 10:26:34;;;;;;;7.30;6.43;;;;;;;4.91;60.67;96022.78;5322039;26;21040;-67
2024/04/23 10:29:01;;;;;;;6.77;6.17;;;;;;;5.18;60.63;96029.81;5331602;26;20524;-67
2024/04/23 10:31:27;;;;;;;6.93;6.20;;;;;;;5.44;60.11;96021.25;5332769;26;21234;-67
2024/04/23 10:33:54;;;;;;;9.50;6.63;;;;;;;5.87;59.22;96024.28;5333901;26;21050;-67
2024/04/23 10:36:20;;;;;;;8.17;5.70;;;;;;;5.94;58.39;96025.84;5335277;26;20472;-65
2024/04/23 10:38:48;;;;;;;7.97;6.77;;;;;;;5.32;59.49;96026.81;5335135;26;20490;-68
2024/04/23 10:41:15;;;;;;;8.53;6.67;;;;;;;5.18;60.74;96029.81;5333097;26;20460;-68
2024/04/23 10:43:41;;;;;;;7.30;5.90;;;;;;;5.13;59.83;96021.28;5335162;26;20461;-67
2024/04/23 10:46:06;;;;;;;6.80;6.10;;;;;;;5.06;60.10;96011.97;5334965;26;20541;-67
2024/04/23 10:48:37;;;;;;;9.00;6.27;;;;;;;5.06;60.51;96020.63;5336382;26;20238;-68
2024/04/23 10:51:05;;;;;;;6.60;5.80;;;;;;;5.32;61.12;96028.56;5327926;26;20231;-68
2024/04/23 10:53:32;;;;;;;7.27;6.30;;;;;;;5.19;60.83;96013.28;5329044;26;21118;-67
2024/04/23 10:55:57;;;;;;;8.27;7.57;;;;;;;5.26;61.39;96016.56;5331226;26;20465;-67
2024/04/23 10:58:24;;;;;;;5.73;5.20;;;;;;;5.22;60.99;96021.03;5331805;26;20522;-66
2024/04/23 11:01:00;;;;;;;7.37;6.00;;;;;;;5.28;61.19;96014.78;5333783;26;20280;-67
2024/04/23 11:03:28;;;;;;;6.40;5.80;;;;;;;5.37;61.25;96018.88;5332183;26;20499;-67
2024/04/23 11:05:53;;;;;;;6.30;5.77;;;;;;;5.55;60.67;96018.34;5321127;26;20463;-67
2024/04/23 11:08:24;;;;;;;6.40;5.67;;;;;;;5.35;60.17;96010.25;5334386;26;21031;-68
2024/04/23 11:11:02;;;;;;;8.27;6.23;;;;;;;5.43;60.82;96013.47;5335101;26;20238;-69
2024/04/23 11:13:29;;;;;;;6.83;6.10;;;;;;;5.33;60.05;96010.28;5332880;26;20596;-67
2024/04/23 11:15:56;;;;;;;5.73;5.23;;;;;;;5.56;60.87;96013.97;5325852;26;20532;-67
2024/04/23 11:18:25;;;;;;;9.30;5.50;;;;;;;5.65;60.10;96011.94;5329779;26;20464;-66
2024/04/23 11:20:55;;;;;;;8.83;6.40;;;;;;;5.56;60.78;96017.41;5334826;26;20461;-68
2024/04/23 11:23:22;;;;;;;6.50;5.90;;;;;;;5.23;60.98;96019.28;5334528;26;20457;-67
2024/04/23 11:25:49;;;;;;;10.43;5.77;;;;;;;5.33;61.80;96018.09;5334135;26;20464;-66
2024/04/23 11:28:15;;;;;;;7.60;6.40;;;;;;;5.13;61.93;96016.09;5333277;26;20518;-67
2024/04/23 11:30:41;;;;;;;11.37;6.00;;;;;;;5.56;61.62;96004.41;5334949;26;20488;-67
2024/04/23 11:33:09;;;;;;;9.10;7.10;;;;;;;5.74;61.15;96013.41;5334799;26;20813;-67
2024/04/23 11:35:38;;;;;;;6.47;5.87;;;;;;;5.64;61.43;96012.81;5323032;26;21092;-67
2024/04/23 11:38:04;;;;;;;7.10;5.73;;;;;;;5.58;60.29;96010.44;5334676;26;21307;-68
2024/04/23 11:40:29;;;;;;;7.30;5.40;;;;;;;5.50;61.55;96010.66;5335591;26;20514;-68
2024/04/23 11:43:17;;;;;;;6.97;6.10;;;;;;;5.53;60.66;96014.94;5334305;26;20358;-69
2024/04/23 11:45:42;;;;;;;6.93;6.20;;;;;;;5.50;59.64;96004.59;5367861;26;20233;-68